Time;durP1;ratioP1;P1;durP2;ratioP2;P2;SDS_P1;SDS_P2;PMS_P1;PMS_P2;Temp;Humidity;BMP_temperature;BMP_pressure;BME280_temperature;BME280_humidity;BME280_pressure;Samples;Min_cycle;Max_cycle;Signal;HPM_P1;HPM_P2
2023/12/31 00:00:34;;;;;;;;;4.00;4.00;;;;;15.09;100.00;99694.91;2088239;28;44924;-61
2023/12/31 00:01:35;;;;;;;;;6.00;5.00;;;;;15.08;100.00;99695.00;2088286;28;44883;-62
2023/12/31 00:02:37;;;;;;;;;4.00;4.00;;;;;15.08;100.00;99703.88;2088304;28;45048;-62
2023/12/31 00:03:37;;;;;;;;;5.50;4.50;;;;;15.08;100.00;99687.84;2088007;28;44768;-62
2023/12/31 00:04:37;;;;;;;;;4.00;4.00;;;;;15.09;100.00;99667.31;2088189;28;44854;-63
2023/12/31 00:05:38;;;;;;;;;5.00;4.00;;;;;15.07;100.00;99651.38;2087919;28;44917;-62
2023/12/31 00:06:38;;;;;;;;;5.00;4.67;;;;;15.06;100.00;99651.47;2088052;28;44867;-61
2023/12/31 00:07:38;;;;;;;;;5.00;5.00;;;;;15.07;100.00;99653.19;2088133;28;44839;-61
2023/12/31 00:08:39;;;;;;;;;5.67;5.67;;;;;15.06;100.00;99659.47;2088288;28;44913;-60
2023/12/31 00:09:39;;;;;;;;;6.00;4.00;;;;;15.07;100.00;99648.69;2088294;28;44952;-60
2023/12/31 00:10:40;;;;;;;;;4.33;4.33;;;;;15.07;100.00;99647.84;2088325;28;44840;-61
2023/12/31 00:11:40;;;;;;;;;5.67;4.67;;;;;15.06;100.00;99660.34;2088240;28;44811;-61
2023/12/31 00:12:41;;;;;;;;;5.00;5.00;;;;;15.07;100.00;99642.50;2087472;28;44879;-62
2023/12/31 00:13:41;;;;;;;;;4.00;4.00;;;;;15.08;100.00;99633.53;2088238;28;44780;-61
2023/12/31 00:14:41;;;;;;;;;4.33;4.33;;;;;15.08;100.00;99634.38;2088350;28;44841;-59
2023/12/31 00:15:41;;;;;;;;;4.00;4.00;;;;;15.08;100.00;99615.69;2088087;28;44818;-62
2023/12/31 00:16:42;;;;;;;;;3.67;3.67;;;;;15.08;100.00;99615.69;2087879;28;45539;-60
2023/12/31 00:17:42;;;;;;;;;6.00;6.00;;;;;15.08;100.00;99620.16;2088289;28;45084;-61
2023/12/31 00:18:42;;;;;;;;;5.00;5.00;;;;;15.08;100.00;99615.69;2087564;28;44947;-61
2023/12/31 00:19:43;;;;;;;;;5.00;5.00;;;;;15.09;100.00;99617.41;2088161;28;45578;-61
2023/12/31 00:20:43;;;;;;;;;4.00;4.00;;;;;15.09;100.00;99636.09;2088324;28;44844;-61
2023/12/31 00:21:43;;;;;;;;;4.33;4.33;;;;;15.09;100.00;99622.75;2088446;28;44731;-60
2023/12/31 00:22:44;;;;;;;;;5.00;5.00;;;;;15.09;100.00;99613.88;2088032;28;44908;-61
2023/12/31 00:23:44;;;;;;;;;5.00;5.00;;;;;15.08;100.00;99610.34;2088095;28;44901;-62
2023/12/31 00:24:45;;;;;;;;;4.00;4.00;;;;;15.08;100.00;99614.81;2088154;28;44887;-61
2023/12/31 00:25:45;;;;;;;;;5.00;3.00;;;;;15.08;100.00;99617.50;2087722;28;44998;-61
2023/12/31 00:26:45;;;;;;;;;6.00;6.00;;;;;15.06;100.00;99604.22;2087260;28;44794;-62
2023/12/31 00:27:45;;;;;;;;;5.00;5.00;;;;;15.07;100.00;99599.75;2081377;28;44871;-62
2023/12/31 00:28:46;;;;;;;;;5.00;5.00;;;;;15.04;100.00;99597.25;2087912;28;45523;-62
2023/12/31 00:29:47;;;;;;;;;6.00;6.00;;;;;15.05;100.00;99593.63;2087634;28;44958;-60
2023/12/31 00:30:48;;;;;;;;;7.00;5.00;;;;;15.05;100.00;99602.50;2087507;28;44861;-61
2023/12/31 00:31:48;;;;;;;;;6.00;5.00;;;;;15.06;100.00;99598.88;2088069;28;44816;-62
2023/12/31 00:32:48;;;;;;;;;5.00;5.00;;;;;15.06;100.00;99590.00;2088060;28;45152;-61
2023/12/31 00:33:50;;;;;;;;;5.00;5.00;;;;;15.05;100.00;99577.59;2087880;28;45043;-61
2023/12/31 00:34:50;;;;;;;;;5.25;4.25;;;;;14.99;100.00;99586.81;2087874;28;44945;-61
2023/12/31 00:35:51;;;;;;;;;6.67;5.33;;;;;14.96;100.00;99589.69;2088259;28;44937;-60
2023/12/31 00:36:51;;;;;;;;;5.00;5.00;;;;;14.95;100.00;99587.94;2089567;28;44786;-61
2023/12/31 00:37:51;;;;;;;;;7.33;6.00;;;;;14.97;100.00;99583.38;2089316;28;44799;-61
2023/12/31 00:38:53;;;;;;;;;7.00;6.00;;;;;14.97;100.00;99570.88;2089201;28;45057;-60
2023/12/31 00:39:53;;;;;;;;;6.75;6.75;;;;;14.97;100.00;99564.69;2088937;28;44936;-60
2023/12/31 00:40:54;;;;;;;;;4.00;4.00;;;;;14.96;100.00;99565.63;2088814;28;44823;-62
2023/12/31 00:41:54;;;;;;;;;6.00;4.67;;;;;14.99;100.00;99571.69;2089365;28;44798;-61
2023/12/31 00:42:54;;;;;;;;;5.67;4.67;;;;;15.00;100.00;99575.22;2089389;28;44861;-61
2023/12/31 00:43:55;;;;;;;;;5.67;5.00;;;;;15.00;100.00;99578.75;2088838;28;45326;-61
2023/12/31 00:44:55;;;;;;;;;7.00;7.00;;;;;15.00;100.00;99575.22;2089407;28;45179;-61
2023/12/31 00:45:55;;;;;;;;;6.67;6.67;;;;;15.01;100.00;99576.94;2089611;28;44943;-60
2023/12/31 00:46:56;;;;;;;;;5.00;5.00;;;;;15.01;100.00;99574.25;2089705;28;44812;-61
2023/12/31 00:47:56;;;;;;;;;6.00;6.00;;;;;15.03;100.00;99572.34;2089058;28;44982;-61
2023/12/31 00:48:56;;;;;;;;;4.00;4.00;;;;;15.06;100.00;99569.50;2089068;28;44996;-62
2023/12/31 00:49:58;;;;;;;;;5.33;5.33;;;;;15.06;100.00;99561.47;2089287;28;44976;-62
2023/12/31 00:51:01;;;;;;;;;7.00;6.00;;;;;15.07;100.00;99549.84;2089587;28;45484;-62
2023/12/31 00:52:01;;;;;;;;;7.25;5.25;;;;;15.04;100.00;99547.34;2088868;28;45050;-61
2023/12/31 00:53:02;;;;;;;;;7.33;6.00;;;;;15.06;100.00;99556.13;2089602;28;44939;-60
2023/12/31 00:54:02;;;;;;;;;5.00;5.00;;;;;15.07;100.00;99555.19;2089174;28;45328;-62
2023/12/31 00:55:03;;;;;;;;;4.67;4.67;;;;;15.08;100.00;99542.69;2089531;28;44984;-62
2023/12/31 00:56:04;;;;;;;;;5.00;5.00;;;;;15.05;100.00;99542.88;2089685;28;44770;-63
2023/12/31 00:57:04;;;;;;;;;5.00;5.00;;;;;15.02;100.00;99552.78;2087872;28;44889;-62
2023/12/31 00:58:05;;;;;;;;;7.00;6.00;;;;;15.06;100.00;99541.91;2088341;28;44916;-61
2023/12/31 00:59:05;;;;;;;;;4.00;4.00;;;;;15.04;100.00;99539.34;2089561;28;44813;-64
2023/12/31 01:00:06;;;;;;;;;6.00;6.00;;;;;15.05;100.00;99549.06;2089449;28;44883;-61
2023/12/31 01:01:07;;;;;;;;;7.33;7.33;;;;;15.02;100.00;99543.91;2089306;28;44824;-61
2023/12/31 01:02:07;;;;;;;;;8.00;5.67;;;;;15.01;100.00;99537.72;2089584;28;44883;-61
2023/12/31 01:03:07;;;;;;;;;6.67;6.67;;;;;15.02;100.00;99534.09;2089558;28;44948;-63
2023/12/31 01:04:08;;;;;;;;;6.33;6.33;;;;;15.04;100.00;99544.69;2089399;28;44969;-62
2023/12/31 01:05:08;;;;;;;;;7.00;6.00;;;;;15.04;100.00;99539.34;2096404;28;45067;-60
2023/12/31 01:06:09;;;;;;;;;7.00;7.00;;;;;15.04;100.00;99538.47;2096659;28;44935;-61
2023/12/31 01:07:09;;;;;;;;;6.00;5.00;;;;;15.05;100.00;99537.53;2089272;28;45410;-61
2023/12/31 01:08:10;;;;;;;;;7.00;6.00;;;;;15.02;100.00;99534.09;2089296;28;44853;-62
2023/12/31 01:09:10;;;;;;;;;5.33;5.33;;;;;15.02;100.00;99530.56;2089199;28;45188;-62
2023/12/31 01:10:11;;;;;;;;;7.00;7.00;;;;;15.02;100.00;99525.22;2089371;28;44822;-62
2023/12/31 01:11:11;;;;;;;;;5.00;4.00;;;;;15.04;100.00;99527.78;2089507;28;44830;-62
2023/12/31 01:12:11;;;;;;;;;3.33;3.33;;;;;15.04;100.00;99517.97;2089047;28;44945;-62
2023/12/31 01:13:12;;;;;;;;;6.67;6.67;;;;;15.06;100.00;99517.88;2088763;28;44947;-63
2023/12/31 01:14:14;;;;;;;;;7.00;6.00;;;;;15.06;100.00;99504.50;2089276;28;44993;-62
2023/12/31 01:15:14;;;;;;;;;7.00;7.00;;;;;15.06;100.00;99491.16;2089248;28;45121;-62
2023/12/31 01:16:15;;;;;;;;;6.00;5.33;;;;;15.06;100.00;99483.13;2089224;28;45456;-62
2023/12/31 01:17:15;;;;;;;;;6.67;6.67;;;;;15.07;100.00;99492.88;2089172;28;45179;-62
2023/12/31 01:18:15;;;;;;;;;8.00;8.00;;;;;15.07;100.00;99493.72;2089210;28;44920;-61
2023/12/31 01:19:16;;;;;;;;;7.00;7.00;;;;;15.07;100.00;99488.38;2089152;28;45167;-60
2023/12/31 01:20:16;;;;;;;;;7.00;7.00;;;;;15.08;100.00;99490.09;2079583;28;45172;-61
2023/12/31 01:21:18;;;;;;;;;6.00;6.00;;;;;15.09;100.00;99482.94;2079921;28;45406;-61
2023/12/31 01:22:18;;;;;;;;;7.50;7.50;;;;;15.07;100.00;99479.50;2089425;28;45007;-60
2023/12/31 01:23:18;;;;;;;;;6.00;6.00;;;;;15.06;100.00;99484.00;2089187;28;44827;-62
2023/12/31 01:24:19;;;;;;;;;6.33;6.33;;;;;15.06;100.00;99493.81;2089272;28;45115;-62
2023/12/31 01:25:19;;;;;;;;;7.00;7.00;;;;;15.08;100.00;99483.91;2089409;28;44935;-59
2023/12/31 01:26:19;;;;;;;;;8.00;8.00;;;;;15.08;100.00;99475.88;2089392;28;44818;-62
2023/12/31 01:27:20;;;;;;;;;6.00;6.00;;;;;14.64;100.00;99480.25;2089366;28;44862;-60
2023/12/31 01:28:20;;;;;;;;;6.67;6.67;;;;;14.99;100.00;99475.50;2071483;28;45015;-61
2023/12/31 01:29:20;;;;;;;;;9.33;7.67;;;;;15.06;100.00;99469.78;2071453;28;44930;-61
2023/12/31 01:30:22;;;;;;;;;9.00;7.00;;;;;15.09;100.00;99474.94;2088993;28;44938;-62
2023/12/31 01:31:24;;;;;;;;;7.25;7.25;;;;;15.10;100.00;99477.50;2089164;28;44874;-62
2023/12/31 01:32:24;;;;;;;;;5.25;5.25;;;;;15.11;100.00;99457.84;2089335;28;44864;-63
2023/12/31 01:33:24;;;;;;;;;7.00;7.00;;;;;15.13;100.00;99447.09;2088251;28;44983;-65
2023/12/31 01:34:25;;;;;;;;;6.33;6.33;;;;;15.14;100.00;99452.34;2088443;28;44922;-62
2023/12/31 01:35:25;;;;;;;;;5.00;5.00;;;;;15.16;100.00;99442.41;2089060;28;44866;-64
2023/12/31 01:36:26;;;;;;;;;5.00;5.00;;;;;15.18;100.00;99445.00;2088957;28;44892;-62
2023/12/31 01:37:26;;;;;;;;;9.50;8.00;;;;;15.18;100.00;99445.84;2089218;28;44853;-64
2023/12/31 01:38:26;;;;;;;;;7.33;5.67;;;;;15.19;100.00;99450.22;2088917;28;44890;-63
2023/12/31 01:39:27;;;;;;;;;6.67;6.00;;;;;15.19;100.00;99471.63;2089255;28;44916;-59
2023/12/31 01:40:27;;;;;;;;;6.00;5.00;;;;;15.19;100.00;99452.91;2088971;28;44826;-62
2023/12/31 01:41:29;;;;;;;;;6.00;6.00;;;;;15.19;100.00;99447.56;2089234;28;45051;-63
2023/12/31 01:42:29;;;;;;;;;5.50;5.50;;;;;15.20;100.00;99437.72;2089215;28;44872;-61
2023/12/31 01:43:29;;;;;;;;;6.00;5.00;;;;;15.21;100.00;99432.28;2089294;28;44875;-61
2023/12/31 01:44:30;;;;;;;;;8.00;8.00;;;;;15.20;100.00;99417.22;2088955;28;44882;-61
2023/12/31 01:45:30;;;;;;;;;6.67;5.33;;;;;15.20;100.00;99435.06;2088887;28;44821;-62
2023/12/31 01:46:32;;;;;;;;;6.00;6.00;;;;;15.19;100.00;99406.63;2083500;28;44843;-61
2023/12/31 01:47:32;;;;;;;;;4.25;4.25;;;;;15.17;100.00;99412.06;2089174;28;44909;-63
2023/12/31 01:48:34;;;;;;;;;5.33;5.33;;;;;15.17;100.00;99400.50;2088470;28;45030;-62
2023/12/31 01:49:35;;;;;;;;;10.00;6.50;;;;;15.19;100.00;99406.63;2088370;28;44842;-62
2023/12/31 01:50:36;;;;;;;;;6.33;6.00;;;;;15.19;100.00;99414.63;2087729;28;44848;-62
2023/12/31 01:51:36;;;;;;;;;4.00;4.00;;;;;15.18;100.00;99410.25;2088124;28;44851;-62
2023/12/31 01:52:37;;;;;;;;;6.33;6.33;;;;;15.17;100.00;99409.38;2088990;28;44932;-61
2023/12/31 01:53:38;;;;;;;;;6.00;6.00;;;;;15.15;100.00;99427.34;2089069;28;44850;-61
2023/12/31 01:54:38;;;;;;;;;6.50;6.00;;;;;15.14;100.00;99425.63;2089083;28;44914;-62
2023/12/31 01:55:39;;;;;;;;;6.00;6.00;;;;;15.16;100.00;99406.81;2097123;28;44862;-62
2023/12/31 01:56:39;;;;;;;;;5.00;5.00;;;;;15.11;100.00;99409.75;2096997;28;44877;-60
2023/12/31 01:57:41;;;;;;;;;6.33;6.00;;;;;15.11;100.00;99406.22;2088972;28;44779;-62
2023/12/31 01:58:42;;;;;;;;;8.25;5.75;;;;;15.13;100.00;99404.34;2088679;28;44839;-61
2023/12/31 01:59:43;;;;;;;;;5.25;4.50;;;;;15.10;100.00;99421.38;2089057;28;45013;-62
2023/12/31 02:00:43;;;;;;;;;7.33;7.33;;;;;15.10;100.00;99409.84;2089043;28;44921;-61
2023/12/31 02:01:45;;;;;;;;;5.33;5.33;;;;;15.09;100.00;99411.66;2089122;28;44862;-61
2023/12/31 02:02:47;;;;;;;;;5.00;5.00;;;;;15.09;100.00;99394.78;2089038;28;45135;-60
2023/12/31 02:03:47;;;;;;;;;6.75;6.75;;;;;15.09;100.00;99392.94;2089209;28;44937;-61
2023/12/31 02:04:48;;;;;;;;;5.00;5.00;;;;;15.12;100.00;99394.56;2088856;28;45011;-61
2023/12/31 02:05:49;;;;;;;;;6.00;6.00;;;;;15.13;100.00;99389.16;2088914;28;44913;-60
2023/12/31 02:06:50;;;;;;;;;6.00;6.00;;;;;15.13;100.00;99374.94;2088371;28;44779;-62
2023/12/31 02:07:50;;;;;;;;;7.67;6.00;;;;;15.13;100.00;99377.63;2088535;28;44886;-62
2023/12/31 02:08:51;;;;;;;;;8.67;7.00;;;;;15.12;100.00;99376.75;2088940;28;44858;-61
2023/12/31 02:09:51;;;;;;;;;6.00;5.00;;;;;15.14;100.00;99366.84;2089178;28;45056;-61
2023/12/31 02:10:52;;;;;;;;;7.33;5.67;;;;;15.14;100.00;99358.81;2088986;28;44873;-61
2023/12/31 02:11:52;;;;;;;;;5.67;5.67;;;;;15.16;100.00;99353.38;2088850;28;45174;-61
2023/12/31 02:12:54;;;;;;;;;5.00;5.00;;;;;15.17;100.00;99349.75;2086678;28;45376;-59
2023/12/31 02:13:55;;;;;;;;;5.00;5.00;;;;;15.18;100.00;99357.66;2089027;28;45567;-60
2023/12/31 02:14:55;;;;;;;;;6.00;6.00;;;;;15.18;100.00;99360.34;2088746;28;44905;-60
2023/12/31 02:15:55;;;;;;;;;5.00;5.00;;;;;15.18;100.00;99362.16;2089082;28;45112;-60
2023/12/31 02:16:56;;;;;;;;;7.00;7.00;;;;;15.17;100.00;99350.59;2089121;28;44794;-60
2023/12/31 02:17:57;;;;;;;;;5.33;4.00;;;;;15.15;100.00;99352.50;2088764;28;44838;-61
2023/12/31 02:18:58;;;;;;;;;4.25;4.25;;;;;15.15;100.00;99344.50;2088687;28;44886;-60
2023/12/31 02:19:58;;;;;;;;;5.00;5.00;;;;;15.14;100.00;99347.28;2070909;28;44921;-59
2023/12/31 02:20:58;;;;;;;;;6.67;6.67;;;;;15.16;100.00;99340.88;2071209;28;44856;-61
2023/12/31 02:21:59;;;;;;;;;6.33;6.33;;;;;15.15;100.00;99344.50;2088661;28;44857;-61
2023/12/31 02:23:00;;;;;;;;;5.33;5.00;;;;;15.16;100.00;99342.69;2088830;28;44972;-61
2023/12/31 02:24:00;;;;;;;;;5.00;5.00;;;;;15.15;100.00;99333.81;2088757;28;44907;-60
2023/12/31 02:25:07;;;;;;;;;4.67;3.33;;;;;15.18;100.00;99335.44;2088793;28;44972;-61
2023/12/31 02:26:10;;;;;;;;;5.00;5.00;;;;;15.19;100.00;99356.69;2088708;28;44965;-61
2023/12/31 02:27:10;;;;;;;;;6.00;6.00;;;;;15.10;100.00;99348.38;2088797;28;45180;-62
2023/12/31 02:28:14;;;;;;;;;5.00;5.00;;;;;15.16;100.00;99329.31;2088680;28;44924;-60
2023/12/31 02:29:14;;;;;;;;;3.50;3.50;;;;;15.12;100.00;99322.44;2088901;28;44853;-60
2023/12/31 02:30:14;;;;;;;;;6.00;6.00;;;;;15.10;100.00;99300.28;2088786;28;44830;-62
2023/12/31 02:31:15;;;;;;;;;4.67;4.67;;;;;15.10;100.00;99285.13;2089122;28;45061;-61
2023/12/31 02:32:15;;;;;;;;;4.67;4.67;;;;;15.12;100.00;99290.38;2088811;28;44889;-61
2023/12/31 02:33:16;;;;;;;;;4.00;4.00;;;;;15.14;100.00;99283.13;2088669;28;45352;-60
2023/12/31 02:34:16;;;;;;;;;4.33;4.33;;;;;15.16;100.00;99289.25;2088833;28;45343;-60
2023/12/31 02:35:17;;;;;;;;;5.00;5.00;;;;;15.17;100.00;99294.47;2089245;28;45136;-62
2023/12/31 02:36:17;;;;;;;;;6.00;6.00;;;;;15.19;100.00;99307.75;2088626;28;44841;-58
2023/12/31 02:37:18;;;;;;;;;5.00;5.00;;;;;15.18;100.00;99293.53;2088200;28;45349;-60
2023/12/31 02:38:18;;;;;;;;;4.67;4.67;;;;;15.18;100.00;99301.53;2087868;28;45036;-60
2023/12/31 02:39:18;;;;;;;;;5.33;5.33;;;;;15.19;100.00;99299.72;2088748;28;44806;-60
2023/12/31 02:40:18;;;;;;;;;6.67;6.00;;;;;15.19;100.00;99303.25;2088492;28;44663;-62
2023/12/31 02:41:19;;;;;;;;;6.33;5.00;;;;;15.19;100.00;99292.56;2088585;28;45302;-61
2023/12/31 02:42:19;;;;;;;;;5.00;5.00;;;;;15.19;100.00;99275.69;2088826;28;44938;-61
2023/12/31 02:43:19;;;;;;;;;7.00;5.67;;;;;15.19;100.00;99281.88;2088714;28;44799;-61
2023/12/31 02:44:20;;;;;;;;;5.33;5.33;;;;;15.19;100.00;99275.69;2088680;28;44969;-61
2023/12/31 02:45:20;;;;;;;;;4.00;4.00;;;;;15.18;100.00;99273.97;2088687;28;44865;-60
2023/12/31 02:46:20;;;;;;;;;4.33;4.00;;;;;15.18;100.00;99271.28;2088396;28;44960;-61
2023/12/31 02:47:21;;;;;;;;;4.00;4.00;;;;;15.20;100.00;99272.03;2088603;28;45455;-61
2023/12/31 02:48:21;;;;;;;;;6.67;5.67;;;;;15.20;100.00;99264.88;2088686;28;44849;-61
2023/12/31 02:49:21;;;;;;;;;4.33;4.00;;;;;15.22;100.00;99284.34;2088711;28;44783;-61
2023/12/31 02:50:22;;;;;;;;;5.00;5.00;;;;;15.21;100.00;99266.59;2088528;28;45488;-60
2023/12/31 02:51:22;;;;;;;;;6.33;6.00;;;;;15.21;100.00;99277.28;2088759;28;44988;-58
2023/12/31 02:52:22;;;;;;;;;5.33;4.67;;;;;15.21;100.00;99279.97;2088622;28;45123;-59
2023/12/31 02:53:23;;;;;;;;;4.00;4.00;;;;;15.22;100.00;99279.00;2088396;28;44828;-61
2023/12/31 02:54:23;;;;;;;;;3.67;3.67;;;;;15.23;100.00;99279.84;2088620;28;44850;-61
2023/12/31 02:55:23;;;;;;;;;4.33;4.00;;;;;15.24;100.00;99277.09;2088545;28;44935;-61
2023/12/31 02:56:24;;;;;;;;;3.33;3.33;;;;;15.24;100.00;99262.88;2088603;28;44991;-61
2023/12/31 02:57:24;;;;;;;;;4.00;4.00;;;;;15.25;100.00;99264.63;2088748;28;44980;-58
2023/12/31 02:58:24;;;;;;;;;5.00;4.00;;;;;15.28;100.00;99277.78;2088181;28;45029;-61
2023/12/31 02:59:24;;;;;;;;;4.00;4.00;;;;;15.30;100.00;99286.53;2088349;28;45007;-61
2023/12/31 03:00:25;;;;;;;;;5.67;5.67;;;;;15.28;100.00;99296.47;2088474;28;45039;-61
2023/12/31 03:01:25;;;;;;;;;6.00;5.33;;;;;15.29;100.00;99295.53;2088111;28;44880;-60
2023/12/31 03:02:25;;;;;;;;;5.67;4.67;;;;;15.32;100.00;99285.47;2088002;28;44962;-61
2023/12/31 03:03:26;;;;;;;;;4.00;4.00;;;;;15.34;100.00;99268.50;2088173;28;44893;-61
2023/12/31 03:04:26;;;;;;;;;5.00;5.00;;;;;15.31;100.00;99278.44;2088617;28;44858;-61
2023/12/31 03:05:26;;;;;;;;;5.67;5.67;;;;;15.31;100.00;99272.22;2088477;28;44825;-62
2023/12/31 03:06:30;;;;;;;;;4.00;3.67;;;;;15.32;100.00;99277.47;2088505;28;45016;-60
2023/12/31 03:07:30;;;;;;;;;5.25;5.25;;;;;15.35;100.00;99267.53;2088722;28;44943;-59
2023/12/31 03:08:30;;;;;;;;;4.00;4.00;;;;;15.32;100.00;99271.25;2088647;28;45024;-61
2023/12/31 03:09:31;;;;;;;;;4.00;4.00;;;;;15.32;100.00;99255.22;2088305;28;44944;-61
2023/12/31 03:10:31;;;;;;;;;4.00;3.00;;;;;15.34;100.00;99260.47;2088779;28;44900;-61
2023/12/31 03:11:31;;;;;;;;;5.00;5.00;;;;;15.38;100.00;99267.34;2088660;28;44808;-61
2023/12/31 03:12:32;;;;;;;;;5.00;4.33;;;;;15.39;100.00;99274.41;2083240;28;44907;-59
2023/12/31 03:13:32;;;;;;;;;5.00;5.00;;;;;15.36;100.00;99264.75;2087399;28;45048;-61
2023/12/31 03:14:32;;;;;;;;;5.00;5.00;;;;;15.37;100.00;99262.94;2088726;28;44777;-60
2023/12/31 03:15:33;;;;;;;;;4.33;4.33;;;;;15.35;100.00;99259.50;2088406;28;44921;-60
2023/12/31 03:16:33;;;;;;;;;9.00;6.00;;;;;15.37;100.00;99263.78;2078683;28;44950;-60
2023/12/31 03:17:33;;;;;;;;;5.00;5.00;;;;;15.37;100.00;99252.25;2079031;28;44919;-59
2023/12/31 03:18:33;;;;;;;;;6.00;6.00;;;;;15.38;100.00;99252.16;2088264;28;44884;-61
2023/12/31 03:19:35;;;;;;;;;4.00;4.00;;;;;15.38;100.00;99248.66;2086833;28;45045;-59
2023/12/31 03:20:36;;;;;;;;;4.00;4.00;;;;;15.38;100.00;99238.81;2087463;28;44945;-60
2023/12/31 03:21:36;;;;;;;;;5.67;5.67;;;;;15.37;100.00;99258.44;2087318;28;44951;-60
2023/12/31 03:22:37;;;;;;;;;4.00;4.00;;;;;15.38;100.00;99254.84;2088715;28;44796;-60
2023/12/31 03:23:37;;;;;;;;;5.67;5.00;;;;;15.41;100.00;99259.13;2088525;28;44865;-62
2023/12/31 03:24:37;;;;;;;;;4.67;4.67;;;;;15.42;100.00;99253.69;2088353;28;44913;-61
2023/12/31 03:25:37;;;;;;;;;5.67;5.00;;;;;15.41;100.00;99227.06;2088540;28;44859;-59
2023/12/31 03:26:38;;;;;;;;;5.67;5.00;;;;;15.41;100.00;99227.06;2096175;28;44840;-60
2023/12/31 03:27:38;;;;;;;;;3.00;3.00;;;;;15.40;100.00;99220.84;2096187;28;45027;-61
2023/12/31 03:28:39;;;;;;;;;5.00;5.00;;;;;15.38;100.00;99203.19;2088666;28;44813;-59
2023/12/31 03:29:39;;;;;;;;;4.67;4.67;;;;;15.39;100.00;99215.59;2088334;28;45129;-59
2023/12/31 03:30:39;;;;;;;;;4.00;4.00;;;;;15.40;100.00;99214.66;2088530;28;44858;-61
2023/12/31 03:31:40;;;;;;;;;4.00;4.00;;;;;15.40;100.00;99210.16;2088341;28;44961;-60
2023/12/31 03:32:40;;;;;;;;;4.67;4.33;;;;;15.39;100.00;99211.13;2088776;28;44783;-61
2023/12/31 03:33:40;;;;;;;;;6.00;4.00;;;;;15.39;100.00;99202.25;2088574;28;44799;-61
2023/12/31 03:34:40;;;;;;;;;4.00;4.00;;;;;15.38;100.00;99196.03;2088339;28;44867;-61
2023/12/31 03:35:41;;;;;;;;;3.67;3.67;;;;;15.41;100.00;99219.03;2088628;28;44987;-62
2023/12/31 03:36:41;;;;;;;;;3.00;3.00;;;;;15.36;100.00;99194.41;2088406;28;44983;-62
2023/12/31 03:37:47;;;;;;;;;4.00;4.00;;;;;15.39;100.00;99187.06;2096249;28;44756;-62
2023/12/31 03:38:48;;;;;;;;;6.00;4.25;;;;;15.39;100.00;99204.91;2078756;28;44929;-60
2023/12/31 03:39:50;;;;;;;;;5.00;4.00;;;;;15.38;100.00;99190.69;2079695;28;44954;-60
2023/12/31 03:40:50;;;;;;;;;3.00;3.00;;;;;15.39;100.00;99197.75;2087702;28;44902;-61
2023/12/31 03:41:51;;;;;;;;;5.00;3.00;;;;;15.39;100.00;99184.38;2087788;28;44863;-61
2023/12/31 03:42:51;;;;;;;;;0.00;0.00;;;;;15.41;100.00;99189.63;2088401;28;44847;-60
2023/12/31 03:43:51;;;;;;;;;4.33;4.00;;;;;15.39;100.00;99171.03;2088433;28;44974;-61
2023/12/31 03:44:52;;;;;;;;;4.00;4.00;;;;;15.38;100.00;99189.84;2088317;28;44921;-59
2023/12/31 03:45:52;;;;;;;;;3.00;3.00;;;;;15.37;100.00;99178.25;2088653;28;44944;-62
2023/12/31 03:46:52;;;;;;;;;5.00;5.00;;;;;15.37;100.00;99177.41;2088547;28;45452;-62
2023/12/31 03:47:53;;;;;;;;;3.00;3.00;;;;;15.36;100.00;99165.84;2088299;28;44979;-61
2023/12/31 03:48:53;;;;;;;;;4.00;4.00;;;;;15.38;100.00;99169.31;2070272;28;44844;-60
2023/12/31 03:49:53;;;;;;;;;4.00;4.00;;;;;15.38;100.00;99173.78;2070789;28;44745;-61
2023/12/31 03:50:55;;;;;;;;;5.67;5.00;;;;;15.42;100.00;99164.59;2088131;28;44897;-62
2023/12/31 03:51:56;;;;;;;;;4.50;4.50;;;;;15.41;100.00;99162.91;2088400;28;44867;-61
2023/12/31 03:52:56;;;;;;;;;4.00;3.67;;;;;15.40;100.00;99172.72;2088317;28;44875;-62
2023/12/31 03:53:56;;;;;;;;;4.00;4.00;;;;;15.42;100.00;99164.59;2087760;28;45037;-63
2023/12/31 03:54:57;;;;;;;;;5.00;5.00;;;;;15.42;100.00;99173.47;2087617;28;44883;-63
2023/12/31 03:55:57;;;;;;;;;3.00;3.00;;;;;15.44;100.00;99158.19;2088159;28;44941;-61
2023/12/31 03:56:57;;;;;;;;;4.00;4.00;;;;;15.46;100.00;99166.97;2088190;28;45418;-62
2023/12/31 03:57:58;;;;;;;;;3.00;3.00;;;;;15.44;100.00;99168.88;2088452;28;45391;-61
2023/12/31 03:58:58;;;;;;;;;4.00;4.00;;;;;15.44;100.00;99173.38;2088284;28;44955;-64
2023/12/31 03:59:59;;;;;;;;;3.33;3.33;;;;;15.43;100.00;99179.69;2088250;28;45101;-61
2023/12/31 04:00:59;;;;;;;;;4.00;4.00;;;;;15.44;100.00;99173.38;2088227;28;44966;-63
2023/12/31 04:01:59;;;;;;;;;5.00;5.00;;;;;15.45;100.00;99157.22;2088216;28;44792;-61
2023/12/31 04:03:00;;;;;;;;;1.67;0.67;;;;;15.47;100.00;99163.31;2088492;28;44799;-61
2023/12/31 04:04:00;;;;;;;;;1.67;1.67;;;;;15.48;100.00;99172.22;2087341;28;44959;-62
2023/12/31 04:05:03;;;;;;;;;4.33;4.33;;;;;15.51;100.00;99166.69;2087671;28;44987;-61
2023/12/31 04:06:03;;;;;;;;;4.50;3.00;;;;;15.50;100.00;99162.25;2087006;28;45288;-60
2023/12/31 04:07:05;;;;;;;;;4.00;3.67;;;;;15.50;100.00;99160.47;2087224;28;45073;-61
2023/12/31 04:08:05;;;;;;;;;2.75;2.75;;;;;15.53;100.00;99152.25;2088366;28;44880;-61
2023/12/31 04:09:06;;;;;;;;;4.00;3.67;;;;;15.55;100.00;99162.84;2088035;28;44760;-61
2023/12/31 04:10:06;;;;;;;;;3.33;3.33;;;;;15.56;100.00;99164.53;2088933;28;44854;-61
2023/12/31 04:11:07;;;;;;;;;3.33;3.33;;;;;15.55;100.00;99168.19;2089738;28;45347;-61
2023/12/31 04:12:07;;;;;;;;;3.00;3.00;;;;;15.56;100.00;99175.25;2087547;28;44869;-61
2023/12/31 04:13:08;;;;;;;;;2.00;2.00;;;;;15.54;100.00;99175.34;2082059;28;45114;-61
2023/12/31 04:14:08;;;;;;;;;5.00;4.00;;;;;15.53;100.00;99165.63;2089622;28;44870;-62
2023/12/31 04:15:08;;;;;;;;;3.00;3.00;;;;;15.53;100.00;99178.97;2089709;28;44901;-61
2023/12/31 04:16:09;;;;;;;;;3.00;3.00;;;;;15.51;100.00;99178.22;2089457;28;45263;-61
2023/12/31 04:17:09;;;;;;;;;3.00;3.00;;;;;15.50;100.00;99178.31;2089762;28;44882;-60
2023/12/31 04:18:10;;;;;;;;;3.00;3.00;;;;;15.49;100.00;99206.84;2088818;28;44912;-62
2023/12/31 04:19:14;;;;;;;;;3.33;3.33;;;;;15.49;100.00;99184.59;2071905;28;44981;-61
2023/12/31 04:20:14;;;;;;;;;3.50;3.00;;;;;15.48;100.00;99198.94;2077880;28;44879;-61
2023/12/31 04:21:14;;;;;;;;;4.00;4.00;;;;;15.49;100.00;99193.50;2089646;28;44895;-61
2023/12/31 04:22:15;;;;;;;;;3.00;2.00;;;;;15.49;100.00;99188.16;2089556;28;44889;-60
2023/12/31 04:23:15;;;;;;;;;2.00;2.00;;;;;15.48;100.00;99165.03;2071844;28;45007;-61
2023/12/31 04:24:15;;;;;;;;;2.33;2.33;;;;;15.45;100.00;99167.94;2072301;28;44873;-61
2023/12/31 04:25:16;;;;;;;;;2.00;2.00;;;;;15.43;100.00;99166.31;2089401;28;45069;-60
2023/12/31 04:26:16;;;;;;;;;2.00;0.00;;;;;15.42;100.00;99149.41;2089785;28;44837;-61
2023/12/31 04:27:16;;;;;;;;;1.00;1.00;;;;;15.39;100.00;99136.28;2097203;28;44846;-61
2023/12/31 04:28:17;;;;;;;;;2.67;2.33;;;;;15.38;100.00;99150.59;2097832;28;44912;-60
2023/12/31 04:29:17;;;;;;;;;2.00;2.00;;;;;15.38;100.00;99134.56;2089463;28;44757;-59
2023/12/31 04:30:22;;;;;;;;;4.33;2.00;;;;;15.37;100.00;99139.97;2089767;28;44752;-60
2023/12/31 04:31:23;;;;;;;;;2.00;2.00;;;;;15.37;100.00;99124.78;2089642;28;44839;-59
2023/12/31 04:32:25;;;;;;;;;2.00;2.00;;;;;15.39;100.00;99124.72;2089506;28;44986;-58
2023/12/31 04:33:25;;;;;;;;;1.75;1.25;;;;;15.40;100.00;99143.31;2088911;28;44828;-59
2023/12/31 04:34:25;;;;;;;;;2.00;2.00;;;;;15.39;100.00;99120.22;2089491;28;44895;-61
2023/12/31 04:35:26;;;;;;;;;1.00;1.00;;;;;15.34;100.00;99111.66;2089225;28;44881;-61
2023/12/31 04:36:26;;;;;;;;;3.00;2.00;;;;;15.36;100.00;99114.22;2089464;28;45069;-58
2023/12/31 04:37:26;;;;;;;;;1.67;1.00;;;;;15.35;100.00;99124.03;2089633;28;44897;-61
2023/12/31 04:38:26;;;;;;;;;1.00;1.00;;;;;15.34;100.00;99142.88;2089533;28;44879;-60
2023/12/31 04:39:27;;;;;;;;;1.00;1.00;;;;;15.31;100.00;99135.91;2089435;28;44837;-61
2023/12/31 04:40:27;;;;;;;;;1.00;1.00;;;;;15.32;100.00;99137.63;2089815;28;44793;-61
2023/12/31 04:41:28;;;;;;;;;1.00;1.00;;;;;15.30;100.00;99140.41;2089325;28;45003;-60